ADDS METAR Data INFO
IDs: Format: Raw Decoded Include TAF

Data at: 0313 UTC 22 Apr 2018

KBAZ 220302Z AUTO 00000KT 1/4SM FG VV004 16/16 A2990 RMK AO2 T01610161
KBAZ 220257Z AUTO 18003KT 1/4SM FG VV006 17/16 A2989 RMK AO2 T01670161
KBAZ 220251Z AUTO 00000KT 1/4SM FG VV008 16/16 A2989 RMK AO2 SLP117 T01610156 53011
KBAZ 220235Z AUTO 00000KT 1/4SM FG VV014 18/18 A2989 RMK AO2 T01780178
KBAZ 220216Z AUTO 00000KT 3/4SM BR VV016 18/17 A2988 RMK AO2 T01780172
KBAZ 220213Z AUTO 16003KT 1 1/2SM BR FEW015 18/17 A2988 RMK AO2 T01780172
KBAZ 220151Z AUTO 17007KT 7SM CLR 17/16 A2987 RMK AO2 SLP110 T01720161
KBAZ 220051Z AUTO 12004KT 10SM CLR 22/19 A2986 RMK AO2 SLP105 T02170189
KBAZ 212351Z AUTO 00000KT 10SM CLR 24/19 A2986 RMK AO2 SLP105 60001 T02440194 10256 20211 56012
KBAZ 212251Z 00000KT 10SM FEW045 24/19 A2986 RMK AO2 SLP106 T02390189
KBAZ 212232Z 23004KT 6SM HZ FEW016 SCT043 24/19 A2986 RMK AO2 LTG DSNT E T02390194
KBAZ 212151Z 20004KT 6SM HZ SCT008 BKN013 OVC043 23/19 A2988 RMK AO2 RAB05E15 SLP112 P0000 T02330194
KBAZ 212132Z VRB03KT 5SM BR BKN009 OVC013 22/20 A2988 RMK AO2 RAB05E15 P0000 T02220200
KBAZ 212105Z 20004KT 3SM -RA BR BKN007 OVC019 22/20 A2989 RMK AO2 RAB05 CIG 006V012 P0000 T02170200
KBAZ 212058Z 17006KT 3SM BR BKN009 BKN015 OVC019 22/20 A2989 RMK AO2 CIG 006V012 T02170200
KBAZ 212051Z 18006KT 3SM BR BKN006 BKN010 OVC027 22/20 A2990 RMK AO2 RAE01B42E47 SLP118 P0000 60001 T02170200 57014
KBAZ 212034Z 16007KT 3SM BR SCT007 BKN010 OVC015 21/19 A2990 RMK AO2 RAE01 CIG 008V013 P0000 T02110194
KBAZ 212012Z 15008KT 3SM BR BKN009 OVC017 22/19 A2991 RMK AO2 RAE01 CIG 007V011 P0000 T02170194
KBAZ 211951Z 15006KT 4SM -RA BR OVC011 22/19 A2992 RMK AO2 RAB51 SLP124 P0000 T02170194
KBAZ 211946Z 17007KT 4SM BR OVC011 22/19 A2992 RMK AO2
KBAZ 211917Z 15006KT 4SM BR OVC008 21/19 A2993 RMK AO2 CIG 006V012 T02110194
KBAZ 211851Z 15006KT 4SM BR BKN007 BKN085 21/19 A2994 RMK AO2 RAE17 SLP132 P0001 T02110194
KBAZ 211829Z 14012KT 1 1/2SM BR BKN005 BKN060 BKN075 21/19 A2993 RMK AO2 RAE17 P0001 T02060189
KBAZ 211818Z 13011KT 1 1/2SM BR FEW021 BKN060 OVC075 20/19 A2994 RMK AO2 RAE17 P0001 T02000189
KBAZ 211753Z 13005KT 1 1/2SM -RA BR SCT009 BKN017 OVC024 19/18 A2997 RMK AO2 P0000 T01890178
KBAZ 211751Z 12005KT 1SM -RA BR FEW005 BKN009 OVC024 19/18 A2997 RMK AO2 RAB21 SLP143 P0001 60001 T01890178 10194 20167 58006
KBAZ 211746Z 08003KT 1SM -RA BR SCT005 BKN009 OVC022 18/17 A2997 RMK AO2 RAB21 CIG 008V012 P0001
KBAZ 211727Z 04003KT 1SM -RA BR BKN005 OVC009 18/17 A2997 RMK AO2 RAB21 CIG 004V007 P0000 T01830172
KBAZ 211651Z 10003KT 1 1/2SM BR OVC005 18/17 A2998 RMK AO2 RAE1552 SLP148 P0000 T01830172
KBAZ 211625Z 09004KT 1 1/2SM BR OVC005 18/17 A2998 RMK AO2 RAE1552 P0000 T01830172
KBAZ 211551Z 12006KT 1 1/2SM -RA BR OVC006 18/17 A2999 RMK AO2 RAB36 SLP149 P0000 T01780167
KBAZ 211549Z 12006KT 2 1/2SM -RA BR OVC006 18/17 A2999 RMK AO2 RAB36 P0000
KBAZ 211541Z 13006KT 3SM -RA BR OVC006 18/17 A2999 RMK AO2 RAB36 P0000 T01830167
KBAZ 211510Z 10007KT 4SM BR OVC007 18/16 A2998 RMK AO2 T01830156
KBAZ 211455Z 11007KT 4SM BR OVC008 18/16 A2998 RMK AO2 T01830156
KBAZ 211451Z 10006KT 4SM BR BKN008 BKN039 OVC050 18/16 A2998 RMK AO2 SLP148 T01830156 51005
KBAZ 211351Z 10007KT 4SM BR BKN008 BKN039 OVC050 18/16 A2998 RMK AO2 SLP148 T01780156
KBAZ 211318Z 08006KT 4SM BR BKN008 OVC013 17/15 A2998 RMK AO2 CIG 007V012 T01720150
KBAZ 211251Z 09007KT 4SM BR BKN013 OVC055 17/15 A2999 RMK AO2 SLP149 T01670150
KBAZ 211232Z 07006KT 4SM BR BKN013 OVC055 17/15 A2998 RMK AO2 T01670150
KBAZ 211209Z 07007KT 9SM SCT013 OVC050 17/15 A2997 RMK AO2 T01670150
KBAZ 211151Z 07009KT 10SM OVC013 17/14 A2997 RMK AO2 SLP143 60000 T01670144 10167 20161 50009
KBAZ 211051Z AUTO 06005KT 10SM OVC010 17/14 A2997 RMK AO2 RAB18E27 SLP145 P0000 T01670144
KBAZ 210951Z AUTO 10003KT 10SM OVC010 17/14 A2996 RMK AO2 SLP140 T01670139
KBAZ 210851Z AUTO 14008KT 10SM OVC011 16/13 A2994 RMK AO2 SLP134 T01610133 58023
KBAZ 210751Z AUTO 13010KT 10SM OVC013 17/13 A2997 RMK AO2 SLP143 T01670128
KBAZ 210729Z AUTO 13008KT 10SM OVC014 17/12 A2998 RMK AO2 T01670122
KBAZ 210651Z AUTO 13008KT 10SM OVC015 17/12 A3000 RMK AO2 SLP153 T01670122
KBAZ 210551Z AUTO 13011KT 10SM OVC018 17/12 A3001 RMK AO2 SLP158 T01670117 10183 20167 401890128 58018
KBAZ 210523Z AUTO 13011KT 10SM BKN022 OVC034 17/11 A3002 RMK AO2 T01670111
KBAZ 210451Z AUTO 13013KT 10SM FEW022 OVC031 17/11 A3003 RMK AO2 SLP166 T01720111
KBAZ 210444Z AUTO 13011KT 10SM SCT022 OVC031 17/11 A3004 RMK AO2 T01720111
KBAZ 210351Z AUTO 12010KT 10SM OVC023 17/11 A3006 RMK AO2 SLP173 T01720111
KBAZ 210251Z AUTO 11008KT 10SM OVC028 17/11 A3006 RMK AO2 SLP177 T01720111 53007
KBAZ 210240Z AUTO 11008KT 10SM OVC029 17/11 A3006 RMK AO2 T01720111
KBAZ 210151Z AUTO 11009KT 10SM BKN031 OVC043 17/12 A3004 RMK AO2 SLP168 T01720117
KBAZ 210051Z AUTO 12012KT 10SM OVC043 18/12 A3003 RMK AO2 SLP166 T01780117
KBAZ 202351Z 11011KT 10SM FEW035 OVC048 18/12 A3004 RMK AO2 SLP169 T01830117 10189 20167 56018
KBAZ 202251Z 12012KT 10SM OVC041 18/11 A3006 RMK AO2 SLP174 T01830111
KBAZ 202151Z 12014KT 10SM OVC047 18/11 A3007 RMK AO2 SLP177 T01830111
KBAZ 202051Z 10013KT 10SM FEW029 SCT050 19/11 A3010 RMK AO2 SLP188 T01890106 58028
KBAZ 201959Z 12010KT 10SM SCT029 OVC055 18/11 A3015 RMK AO2 T01830106
KBAZ 201951Z 11012KT 10SM BKN029 OVC055 18/11 A3015 RMK AO2 SLP205 T01830106
KBAZ 201913Z 12007KT 10SM BKN027 OVC050 17/10 A3017 RMK AO2 T01720100
KBAZ 201904Z 10008KT 10SM SCT027 OVC050 18/10 A3017 RMK AO2 T01780100
KBAZ 201851Z 10011KT 10SM BKN025 OVC055 18/11 A3015 RMK AO2 SLP207 T01830106
KBAZ 201751Z 10011KT 10SM BKN023 18/11 A3018 RMK AO2 SLP216 T01830106 10183 20128 58019
KBAZ 201740Z 09011KT 10SM BKN023 17/10 A3019 RMK AO2 PRESRR T01670100
KBAZ 201651Z 10010KT 10SM FEW050 17/10 A3020 RMK AO2 SLP225 T01670100
KBAZ 201551Z 10011KT 10SM CLR 16/09 A3023 RMK AO2 SLP233 T01610089